• Join FlightAware (Why Join?)
  • Login
  • US Flag 
Gobble Gobble! 
04:54AM EST


 

Airport Tracker/Info


-or-


 

Live Flight TrackerFlight Track Log ✈ A6-EGC ✈ 16-Apr-2013 ✈ VABB / BOM - OMDB / DXB

Flight Track Log - Related Links

Times and Time Zones

All times are in EDT time to prevent confusion due to time zone crossing. See the A6-EGC flight status page for this flight to view local times or setup timezone preferences in your user account.

Time Position Orientation Groundspeed Altitude Reporting Facility
EDT Latitude Longitude Course Direction KTS MPH feet Rate Location/Type
07:04PM 19.3067 72.3472 294° West  Level Estimated
07:05PM 19.3502 72.2429 294° West  Level Estimated
07:06PM 19.3935 72.1386 294° West  Level Estimated
07:07PM 19.4368 72.0342 294° West  Level Estimated
07:08PM 19.4801 71.9297 294° West  Level Estimated
07:09PM 19.5233 71.8252 294° West  Level Estimated
07:10PM 19.5664 71.7206 294° West  Level Estimated
07:11PM 19.6095 71.6160 294° West  Level Estimated
07:12PM 19.6525 71.5113 294° West  Level Estimated
07:13PM 19.6954 71.4065 294° West  Level Estimated
07:14PM 19.7383 71.3017 294° West  Level Estimated
07:15PM 19.7812 71.1969 293° West  Level Estimated
07:16PM 19.8239 71.0919 293° West  Level Estimated
07:17PM 19.8666 70.9870 293° West  Level Estimated
07:18PM 19.9093 70.8819 293° West  Level Estimated
07:19PM 19.9519 70.7768 293° West  Level Estimated
07:20PM 19.9944 70.6717 293° West  Level Estimated
07:21PM 20.0369 70.5665 293° West  Level Estimated
07:22PM 20.0793 70.4613 293° West  Level Estimated
07:23PM 20.1216 70.3559 293° West  Level Estimated
07:24PM 20.1639 70.2506 293° West  Level Estimated
07:25PM 20.2061 70.1451 293° West  Level Estimated
07:26PM 20.2482 70.0397 293° West  Level Estimated
07:27PM 20.2903 69.9341 293° West  Level Estimated
07:28PM 20.3323 69.8285 293° West  Level Estimated
07:29PM 20.3743 69.7229 293° West  Level Estimated
07:30PM 20.4162 69.6171 293° West  Level Estimated
07:31PM 20.4580 69.5114 293° West  Level Estimated
07:32PM 20.4998 69.4055 293° West  Level Estimated
07:33PM 20.5415 69.2997 293° West  Level Estimated
07:34PM 20.5831 69.1937 293° West  Level Estimated
07:35PM 20.6247 69.0877 293° West  Level Estimated
07:36PM 20.6662 68.9817 293° West  Level Estimated
07:37PM 20.7077 68.8755 293° West  Level Estimated
07:38PM 20.7491 68.7694 293° West  Level Estimated
07:39PM 20.7904 68.6631 293° West  Level Estimated
07:40PM 20.8316 68.5568 293° West  Level Estimated
07:41PM 20.8728 68.4505 293° West  Level Estimated
07:42PM 20.9139 68.3441 292° West  Level Estimated
07:43PM 20.9550 68.2376 292° West  Level Estimated
07:44PM 20.9960 68.1311 292° West  Level Estimated
07:45PM 21.0369 68.0245 292° West  Level Estimated
07:46PM 21.0777 67.9179 292° West  Level Estimated
07:47PM 21.1185 67.8112 292° West  Level Estimated
07:48PM 21.1592 67.7044 292° West  Level Estimated
07:49PM 21.1999 67.5976 292° West  Level Estimated
07:50PM 21.2405 67.4907 292° West  Level Estimated
07:51PM 21.2810 67.3838 292° West  Level Estimated
07:52PM 21.3214 67.2768 292° West  Level Estimated
07:53PM 21.3618 67.1697 292° West  Level Estimated
07:54PM 21.4021 67.0626 292° West  Level Estimated
07:55PM 21.4424 66.9554 292° West  Level Estimated
07:56PM 21.4826 66.8482 292° West  Level Estimated
07:57PM 21.5227 66.7409 292° West  Level Estimated
07:58PM 21.5627 66.6336 292° West  Level Estimated
07:59PM 21.6027 66.5262 292° West  Level Estimated
08:00PM 21.6426 66.4187 292° West  Level Estimated
08:01PM 21.6824 66.3112 292° West  Level Estimated
08:02PM 21.7222 66.2036 292° West  Level Estimated
08:03PM 21.7619 66.0959 292° West  Level Estimated
08:04PM 21.8015 65.9882 292° West  Level Estimated
08:05PM 21.8411 65.8804 292° West  Level Estimated
08:06PM 21.8806 65.7726 292° West  Level Estimated
08:07PM 21.9200 65.6647 292° West  Level Estimated
08:08PM 21.9594 65.5568 291° West  Level Estimated
08:08PM 21.8250 64.4790 291° West 419 482 36,000  Level FlightAware
08:09PM 21.9986 65.4488 291° West  Level Estimated
08:09PM 21.8550 64.4130 296° West 418 481 36,000  Level FlightAware
08:11PM 21.9338 64.2224 294° West  Level Estimated
08:12PM 21.9775 64.1164 294° West  Level Estimated
08:12PM 22.0260 64.0400 294° West 416 479 36,000  Level FlightAware
08:13PM 22.0620 63.9600 296° West 415 478 36,000  Level FlightAware
08:13PM 22.0910 63.8940 295° West 415 478 36,000  Level FlightAware
08:14PM 22.1180 63.8300 294° West 415 478 36,000  Level FlightAware
08:15PM 22.1460 63.7660 295° West 415 478 36,000  Level FlightAware
08:15PM 22.1740 63.7020 295° West 415 478 36,000  Level FlightAware
08:16PM 22.2080 63.6220 295° West 415 478 36,000  Level FlightAware
08:17PM 22.2360 63.5580 295° West 415 478 36,000  Level FlightAware
08:18PM 22.2630 63.4940 295° West 415 478 36,000  Level FlightAware
08:18PM 22.2910 63.4310 296° West 415 478 36,000  Level FlightAware
08:19PM 22.3180 63.3670 295° West 415 478 36,000  Level FlightAware
08:20PM 22.3530 63.2870 295° West 415 478 36,000  Level FlightAware
08:20PM 22.3810 63.2230 295° West 415 478 36,000  Level FlightAware
08:21PM 22.4080 63.1590 295° West 415 478 36,000  Level FlightAware
08:22PM 22.4360 63.0950 295° West 415 478 36,000  Level FlightAware
08:23PM 22.4700 63.0150 295° West 415 478 36,000  Level FlightAware
08:25PM 22.5533 62.8045 293° West  Level Estimated
08:26PM 22.5955 62.6973 293° West  Level Estimated
08:27PM 22.6377 62.5901 293° West  Level Estimated
08:28PM 22.6798 62.4828 293° West  Level Estimated
08:29PM 22.7218 62.3755 293° West  Level Estimated
08:30PM 22.7638 62.2681 293° West  Level Estimated
08:31PM 22.8057 62.1606 293° West  Level Estimated
08:32PM 22.8475 62.0531 293° West  Level Estimated
08:33PM 22.8892 61.9454 293° West  Level Estimated
08:34PM 22.9309 61.8378 293° West  Level Estimated
08:35PM 22.9725 61.7300 293° West  Level Estimated
08:36PM 23.0140 61.6222 293° West  Level Estimated
08:37PM 23.0555 61.5144 293° West  Level Estimated
08:38PM 23.0969 61.4064 293° West  Level Estimated
08:39PM 23.1382 61.2984 293° West  Level Estimated
08:40PM 23.1794 61.1903 293° West  Level Estimated
08:41PM 23.2206 61.0822 293° West  Level Estimated
08:42PM 23.2617 60.9740 292° West  Level Estimated
08:43PM 23.3027 60.8657 292° West  Level Estimated
08:44PM 23.3436 60.7574 292° West  Level Estimated
08:45PM 23.3845 60.6490 292° West  Level Estimated
08:46PM 23.4253 60.5405 292° West  Level Estimated
08:47PM 23.4660 60.4320 292° West  Level Estimated
08:48PM 23.5066 60.3233 292° West  Level Estimated
08:49PM 23.5472 60.2147 292° West  Level Estimated
08:50PM 23.5877 60.1059 292° West  Level Estimated
08:51PM 23.6281 59.9971 292° West  Level Estimated
08:52PM 23.6684 59.8883 292° West  Level Estimated
08:53PM 23.7087 59.7793 292° West  Level Estimated
08:54PM 23.7488 59.6703 292° West  Level Estimated
08:55PM 23.7889 59.5612 292° West  Level Estimated
08:56PM 23.8290 59.4521 292° West  Level Estimated
08:57PM 23.8689 59.3429 292° West  Level Estimated
08:58PM 23.9088 59.2336 292° West  Level Estimated
08:59PM 23.9486 59.1242 292° West  Level Estimated
09:00PM 23.9883 59.0148 292° West  Level Estimated
09:01PM 24.0280 58.9054 292° West  Level Estimated
09:02PM 24.0675 58.7958 292° West  Level Estimated
09:03PM 24.1070 58.6862 292° West  Level Estimated
09:04PM 24.1464 58.5765 292° West  Level Estimated
09:05PM 24.1857 58.4668 291° West  Level Estimated
09:06PM 24.2250 58.3569 291° West  Level Estimated
09:07PM 24.2642 58.2471 291° West  Level Estimated
09:08PM 24.3033 58.1371 291° West  Level Estimated
09:09PM 24.3423 58.0271 291° West  Level Estimated
09:09PM 24.4160 57.5890 291° West 403 464 36,000  Level FlightAware
09:09PM 24.4400 57.5120 289° West 404 465 36,000  Level FlightAware
09:10PM 24.4740 57.4020 289° West 405 466 36,000  Level FlightAware
09:11PM 24.4970 57.3240 288° West 405 466 36,000 -1,740 Level FlightAware
09:12PM 24.5280 57.2280 290° West 390 449 33,400 -2,880 Descending FlightAware
09:12PM 24.5510 57.1530 289° West 387 445 32,000 -1,800 Descending FlightAware
09:13PM 24.5740 57.0750 288° West 362 417 30,900 -1,920 Descending FlightAware
09:14PM 24.6030 56.9800 289° West 346 398 28,800 -2,520 Descending FlightAware
09:15PM 24.6250 56.9100 289° West 345 397 27,000 -2,160 Descending FlightAware
09:15PM 24.6470 56.8430 290° West 345 397 25,800 -1,920 Descending FlightAware
09:16PM 24.6810 56.7780 300° West 351 404 24,300 -1,860 Descending FlightAware
09:17PM 24.7180 56.7110 301° West 346 398 23,200 -1,320 Descending FlightAware
09:17PM 24.7480 56.6570 301° West 327 376 22,600 -1,200 Descending FlightAware
09:18PM 24.7590 56.6080 284° West 321 369 21,900 -1,440 Descending FlightAware
09:19PM 24.7520 56.5370 264° West 317 365 20,800 -1,440 Descending FlightAware
09:19PM 24.7450 56.4760 263° West 314 361 19,900 -1,500 Descending FlightAware
09:20PM 24.7370 56.4010 263° West 315 362 18,700 -1,680 Descending FlightAware
09:21PM 24.7300 56.3370 263° West 313 360 17,600 -1,500 Descending FlightAware
09:21PM 24.7240 56.2760 264° West 310 357 16,700 -1,200 Descending FlightAware
09:22PM 24.7170 56.1980 264° West 300 345 15,800 -960 Descending FlightAware
09:23PM 24.7320 56.1540 291° West 276 318 15,400 -840 Descending FlightAware
09:23PM 24.7460 56.1410 320° Northwest 264 304 15,100 -1,200 Descending FlightAware
09:24PM 24.7760 56.1310 343° North 272 313 14,600 -1,380 Descending FlightAware
09:24PM 24.8370 56.1250 355° North 273 314 13,500 -1,320 Descending FlightAware
09:25PM 24.8850 56.1200 355° North 261 300 12,800 -1,140 Descending FlightAware
09:26PM 24.9410 56.1140 354° North 256 295 11,900 -1,200 Descending FlightAware
09:26PM 24.9540 56.1100 344° North 260 299 11,700 -960 Descending FlightAware
09:26PM 24.9660 56.1010 326° Northwest 257 296 11,500 -840 Descending FlightAware
09:26PM 24.9770 56.0840 306° West 254 292 11,300 -600 Descending FlightAware
09:27PM 25.0040 56.0330 300° West 252 290 10,900 -720 Descending FlightAware
09:28PM 25.0240 55.9970 302° West 257 296 10,400 -540 Descending FlightAware
09:28PM 25.0500 55.9480 300° West 255 293 10,200 -900 Descending FlightAware
09:29PM 25.0810 55.9210 322° Northwest 9,300 -1,500 Descending FlightAware
09:29PM 25.0890 55.9130 318° Northwest 246 283 9,200 -180 Descending FlightAware
09:30PM 25.1150 55.8840 315° West 246 283 9,200  Level FlightAware
09:30PM 25.1280 55.8690 314° West 246 283 9,200  Level FlightAware
09:31PM 25.1490 55.8470 317° Northwest 246 283 9,200  Level FlightAware
09:31PM 25.1630 55.8320 316° Northwest 246 283 9,200 -1,140 Level FlightAware
09:32PM 25.1980 55.7700 302° West 7,400 -1,440 Descending FlightAware
09:32PM 25.2190 55.7300 300° West 235 270 7,300 -660 Descending FlightAware
09:33PM 25.2380 55.6980 303° West 220 253 6,600 -900 Descending FlightAware
09:35PM 25.2810 55.5620 289° West 226 260 4,900 -660 Descending FlightAware
09:36PM 25.2590 55.5440 217° Southwest 228 262 4,900 -480 Level FlightAware
09:36PM 25.2340 55.5520 164° South 244 281 4,500 -780 Descending FlightAware
09:36PM 25.2100 55.5880 126° Southeast 227 261 4,200 -300 Descending FlightAware
09:37PM 25.1970 55.6120 121° Southeast 227 261 4,200 -720 Level FlightAware
09:37PM 25.1840 55.6370 120° Southeast 221 254 3,600 -1,020 Descending FlightAware
09:38PM 25.1690 55.6630 123° Southeast 221 254 3,300 -360 Descending FlightAware
09:38PM 25.1560 55.6860 122° Southeast 221 254 3,300  Level FlightAware
09:39PM 25.1080 55.6310 226° Southwest 2,900 -420 Descending FlightAware
09:42PM 25.2232 55.4222 301° West  Level Estimated
09:43PM 25.2550 55.3643 301° West  Level Estimated
09:43PM 25.2130 55.4360 211° Southwest 1,000  Level FlightAware
09:44PM 25.2550 55.3643 211° Southwest  Level Estimated
09:46PM 25.2550 55.3643 303° West  Level Estimated
09:47PM 25.2550 55.3643 211° Southwest  Level Estimated
09:48PM 25.2550 55.3643 211° Southwest  Level Estimated
09:49PM 25.2550 55.3643 211° Southwest  Level Estimated
09:50PM 25.2550 55.3643 211° Southwest  Level Estimated
09:51PM 25.2550 55.3643 211° Southwest  Level Estimated
09:52PM 25.2550 55.3643 211° Southwest  Level Estimated